Terminal Aerodrome Forecast
Issued by NWS

Home | Current Version | Previous Version | Text Only | Print | Product List | Glossary Off
Versions: 1 2 3 4 5 6 7 8 9 10 11 12

000
FTUS43 KMPX 082300
TAFRWF
TAF
KRWF 082330Z 0900/0924 32010G17KT P6SM FEW050
     FM090100 30005KT P6SM SKC
     FM091600 32008KT P6SM FEW050=

USA.gov is the U.S. government's official web portal to all federal, state and local government web resources and services.